createdAt,value
2023-05-12T00:00:13.855Z,89.50
2023-05-12T00:01:13.851Z,89.29
2023-05-12T00:02:13.902Z,89.19
2023-05-12T00:03:13.866Z,89.25
2023-05-12T00:04:13.803Z,89.56
2023-05-12T00:05:13.772Z,89.09
2023-05-12T00:06:13.759Z,89.40
2023-05-12T00:07:13.823Z,89.40
2023-05-12T00:08:13.727Z,89.56
2023-05-12T00:09:13.726Z,90.48
2023-05-12T00:10:13.708Z,90.48
2023-05-12T00:11:13.731Z,90.18
2023-05-12T00:12:13.692Z,90.28
2023-05-12T00:13:13.721Z,90.08
2023-05-12T00:14:13.672Z,90.08
2023-05-12T00:15:13.665Z,90.38
2023-05-12T00:16:13.662Z,89.46
2023-05-12T00:17:13.644Z,89.91
2023-05-12T00:18:13.612Z,90.48
2023-05-12T00:19:13.630Z,90.48
2023-05-12T00:20:13.605Z,90.18
2023-05-12T00:21:13.607Z,90.08
2023-05-12T00:22:13.584Z,90.28
2023-05-12T00:23:13.592Z,90.28
2023-05-12T00:24:13.551Z,90.28
2023-05-12T00:25:13.538Z,89.97
2023-05-12T00:26:13.558Z,90.08
2023-05-12T00:27:13.515Z,89.97
2023-05-12T00:28:13.519Z,90.18
2023-05-12T00:29:13.505Z,90.38
2023-05-12T00:30:22.330Z,90.69
2023-05-12T00:31:13.520Z,90.59
2023-05-12T00:32:21.047Z,90.59
2023-05-12T00:33:13.524Z,90.65
2023-05-12T00:34:13.458Z,91.16
2023-05-12T00:35:13.474Z,90.65
2023-05-12T00:36:13.431Z,90.95
2023-05-12T00:37:13.416Z,90.65
2023-05-12T00:38:13.395Z,90.65
2023-05-12T00:39:13.423Z,90.55
2023-05-12T00:40:13.366Z,90.65
2023-05-12T00:41:13.383Z,90.75
2023-05-12T00:42:13.381Z,90.44
2023-05-12T00:43:13.367Z,90.55
2023-05-12T00:44:13.356Z,90.61
2023-05-12T00:45:13.319Z,90.81
2023-05-12T00:46:13.344Z,90.95
2023-05-12T00:47:13.319Z,90.50
2023-05-12T00:48:13.304Z,90.44
2023-05-12T00:49:13.295Z,90.65
2023-05-12T00:50:13.263Z,90.81
2023-05-12T00:51:13.291Z,90.40
2023-05-12T00:52:13.244Z,90.91
2023-05-12T00:53:13.233Z,90.75
2023-05-12T00:54:13.266Z,90.81
2023-05-12T00:55:13.249Z,90.20
2023-05-12T00:56:13.189Z,90.81
2023-05-12T00:57:13.189Z,90.81
2023-05-12T00:58:13.180Z,90.75
2023-05-12T00:59:13.165Z,90.91
2023-05-12T01:00:13.168Z,90.20
2023-05-12T01:01:13.195Z,90.50
2023-05-12T01:02:13.143Z,90.61
2023-05-12T01:03:13.289Z,90.50
2023-05-12T01:04:13.185Z,90.61
2023-05-12T01:05:13.132Z,90.75
2023-05-12T01:06:13.081Z,90.71
2023-05-12T01:07:13.075Z,90.61
2023-05-12T01:08:20.620Z,90.40
2023-05-12T01:09:13.089Z,90.55
2023-05-12T01:10:13.057Z,90.50
2023-05-12T01:11:13.037Z,91.02
2023-05-12T01:12:13.016Z,90.24
2023-05-12T01:13:13.009Z,90.24
2023-05-12T01:14:13.015Z,90.03
2023-05-12T01:15:12.999Z,90.14
2023-05-12T01:16:12.965Z,90.03
2023-05-12T01:17:13.035Z,90.03
2023-05-12T01:18:12.966Z,90.14
2023-05-12T01:19:13.085Z,90.38
2023-05-12T01:20:12.954Z,90.59
2023-05-12T01:21:12.926Z,90.28
2023-05-12T01:22:12.898Z,91.00
2023-05-12T01:23:12.956Z,90.89
2023-05-12T01:24:12.896Z,90.80
2023-05-12T01:25:12.890Z,90.89
2023-05-12T01:26:12.851Z,91.00
2023-05-12T01:27:12.850Z,91.10
2023-05-12T01:28:12.830Z,90.80
2023-05-12T01:29:12.866Z,90.28
2023-05-12T01:30:12.831Z,90.32
2023-05-12T01:31:12.848Z,89.50
2023-05-12T01:32:12.788Z,89.19
2023-05-12T01:33:12.784Z,89.50
2023-05-12T01:34:12.768Z,89.50
2023-05-12T01:35:12.789Z,89.34
2023-05-12T01:36:12.761Z,89.54
2023-05-12T01:37:12.839Z,89.54
2023-05-12T01:38:12.718Z,89.23
2023-05-12T01:39:12.706Z,89.34
2023-05-12T01:40:12.694Z,89.34
2023-05-12T01:41:12.707Z,89.64
2023-05-12T01:42:12.698Z,89.75
2023-05-12T01:43:12.678Z,89.69
2023-05-12T01:44:12.644Z,89.58
2023-05-12T01:45:12.677Z,89.64
2023-05-12T01:46:12.688Z,89.69
2023-05-12T01:47:12.618Z,89.58
2023-05-12T01:48:21.378Z,89.48
2023-05-12T01:49:12.734Z,89.28
2023-05-12T01:50:12.749Z,89.79
2023-05-12T01:51:12.634Z,89.69
2023-05-12T01:52:12.693Z,89.83
2023-05-12T01:53:12.620Z,89.62
2023-05-12T01:54:12.580Z,89.83
2023-05-12T01:55:12.566Z,89.01
2023-05-12T01:56:12.538Z,89.22
2023-05-12T01:57:12.496Z,89.31
2023-05-12T01:58:12.533Z,89.73
2023-05-12T01:59:12.587Z,89.87
2023-05-12T02:00:12.502Z,89.46
2023-05-12T02:01:12.458Z,89.73
2023-05-12T02:02:12.641Z,89.87
2023-05-12T02:03:12.547Z,89.87
2023-05-12T02:04:12.520Z,89.46
2023-05-12T02:05:12.403Z,89.56
2023-05-12T02:06:12.433Z,89.15
2023-05-12T02:07:12.413Z,89.87
2023-05-12T02:08:12.435Z,89.71
2023-05-12T02:09:12.432Z,88.37
2023-05-12T02:10:15.408Z,88.57
2023-05-12T02:11:12.334Z,89.61
2023-05-12T02:12:12.347Z,89.71
2023-05-12T02:13:12.324Z,89.29
2023-05-12T02:14:12.347Z,89.95
2023-05-12T02:15:12.324Z,89.44
2023-05-12T02:16:12.357Z,89.95
2023-05-12T02:17:12.269Z,90.78
2023-05-12T02:18:12.286Z,90.26
2023-05-12T02:19:12.281Z,90.67
2023-05-12T02:20:12.431Z,90.67
2023-05-12T02:21:12.241Z,90.57
2023-05-12T02:22:12.228Z,90.57
2023-05-12T02:23:12.228Z,90.26
2023-05-12T02:24:14.702Z,90.26
2023-05-12T02:25:12.203Z,90.37
2023-05-12T02:26:12.175Z,90.22
2023-05-12T02:27:12.170Z,90.26
2023-05-12T02:28:12.189Z,90.47
2023-05-12T02:29:12.163Z,90.47
2023-05-12T02:30:12.132Z,90.47
2023-05-12T02:31:12.108Z,90.67
2023-05-12T02:32:12.278Z,90.06
2023-05-12T02:33:12.115Z,90.47
2023-05-12T02:34:12.087Z,89.75
2023-05-12T02:35:12.101Z,89.75
2023-05-12T02:36:12.156Z,90.78
2023-05-12T02:37:12.054Z,90.37
2023-05-12T02:38:12.058Z,90.41
2023-05-12T02:39:12.069Z,90.57
2023-05-12T02:40:12.061Z,90.67
2023-05-12T02:41:12.000Z,90.61
2023-05-12T02:42:11.992Z,90.16
2023-05-12T02:43:11.991Z,90.61
2023-05-12T02:44:11.968Z,90.41
2023-05-12T02:45:11.985Z,90.72
2023-05-12T02:46:12.023Z,90.61
2023-05-12T02:47:11.931Z,90.51
2023-05-12T02:48:11.925Z,90.51
2023-05-12T02:49:11.912Z,90.51
2023-05-12T02:50:11.934Z,90.51
2023-05-12T02:51:11.908Z,90.41
2023-05-12T02:52:11.925Z,90.41
2023-05-12T02:53:11.863Z,90.61
2023-05-12T02:54:11.863Z,90.41
2023-05-12T02:55:11.856Z,90.41
2023-05-12T02:56:11.880Z,91.03
2023-05-12T02:57:11.830Z,90.82
2023-05-12T02:58:11.815Z,91.34
2023-05-12T02:59:11.798Z,91.44
2023-05-12T03:00:11.812Z,91.03
2023-05-12T03:01:12.088Z,90.92
2023-05-12T03:02:11.838Z,91.24
2023-05-12T03:03:11.834Z,91.34
2023-05-12T03:04:11.745Z,91.13
2023-05-12T03:05:11.732Z,90.92
2023-05-12T03:06:11.768Z,90.61
2023-05-12T03:07:11.716Z,91.44
2023-05-12T03:08:11.703Z,91.34
2023-05-12T03:09:11.707Z,91.64
2023-05-12T03:10:11.701Z,91.71
2023-05-12T03:11:11.676Z,92.12
2023-05-12T03:12:11.693Z,91.60
2023-05-12T03:13:11.638Z,92.43
2023-05-12T03:14:11.642Z,92.53
2023-05-12T03:15:11.656Z,92.43
2023-05-12T03:16:11.639Z,92.12
2023-05-12T03:17:11.727Z,92.33
2023-05-12T03:18:11.663Z,92.53
2023-05-12T03:19:11.706Z,92.33
2023-05-12T03:20:11.568Z,92.43
2023-05-12T03:21:11.563Z,92.12
2023-05-12T03:22:11.565Z,92.59
2023-05-12T03:23:11.550Z,92.12
2023-05-12T03:24:11.540Z,92.12
2023-05-12T03:25:11.542Z,92.38
2023-05-12T03:26:11.547Z,92.08
2023-05-12T03:27:11.558Z,93.01
2023-05-12T03:28:11.509Z,92.49
2023-05-12T03:29:11.488Z,92.49
2023-05-12T03:30:11.465Z,93.21
2023-05-12T03:31:11.452Z,93.01
2023-05-12T03:32:11.438Z,92.96
2023-05-12T03:33:11.440Z,92.76
2023-05-12T03:34:11.427Z,93.37
2023-05-12T03:35:11.395Z,92.96
2023-05-12T03:36:11.409Z,92.76
2023-05-12T03:37:11.395Z,92.76
2023-05-12T03:38:11.362Z,93.06
2023-05-12T03:39:11.378Z,92.86
2023-05-12T03:40:19.314Z,92.86
2023-05-12T03:41:11.429Z,92.76
2023-05-12T03:42:11.455Z,92.96
2023-05-12T03:43:11.441Z,92.86
2023-05-12T03:44:11.454Z,93.16
2023-05-12T03:45:11.307Z,92.71
2023-05-12T03:46:11.311Z,92.71
2023-05-12T03:47:12.449Z,93.02
2023-05-12T03:48:11.286Z,92.92
2023-05-12T03:49:11.261Z,92.61
2023-05-12T03:50:11.246Z,92.71
2023-05-12T03:51:11.217Z,92.92
2023-05-12T03:52:11.235Z,92.82
2023-05-12T03:53:11.221Z,93.02
2023-05-12T03:54:11.223Z,92.71
2023-05-12T03:55:11.167Z,92.67
2023-05-12T03:56:11.168Z,92.97
2023-05-12T03:57:11.143Z,93.18
2023-05-12T03:58:11.170Z,93.18
2023-05-12T03:59:11.135Z,92.87
2023-05-12T04:00:11.242Z,92.87
2023-05-12T04:01:11.121Z,92.77
2023-05-12T04:02:11.162Z,93.04
2023-05-12T04:03:11.272Z,93.14
2023-05-12T04:04:11.122Z,93.35
2023-05-12T04:05:11.071Z,92.63
2023-05-12T04:06:11.082Z,92.52
2023-05-12T04:07:11.034Z,92.83
2023-05-12T04:08:11.027Z,92.83
2023-05-12T04:09:11.004Z,93.24
2023-05-12T04:10:11.030Z,93.10
2023-05-12T04:11:10.988Z,92.52
2023-05-12T04:12:10.989Z,93.20
2023-05-12T04:13:10.981Z,93.30
2023-05-12T04:14:10.957Z,93.30
2023-05-12T04:15:10.969Z,93.10
2023-05-12T04:16:11.003Z,92.89
2023-05-12T04:17:10.944Z,92.89
2023-05-12T04:18:10.936Z,92.69
2023-05-12T04:19:10.995Z,92.74
2023-05-12T04:20:10.893Z,93.51
2023-05-12T04:21:10.882Z,93.46
2023-05-12T04:22:10.884Z,93.36
2023-05-12T04:23:10.849Z,92.85
2023-05-12T04:24:10.867Z,92.95
2023-05-12T04:25:10.866Z,92.70
2023-05-12T04:26:10.821Z,92.74
2023-05-12T04:27:10.828Z,93.01
2023-05-12T04:28:12.194Z,93.01
2023-05-12T04:29:10.782Z,92.70
2023-05-12T04:30:10.793Z,92.70
2023-05-12T04:31:10.764Z,92.50
2023-05-12T04:32:10.823Z,92.80
2023-05-12T04:33:10.803Z,92.97
2023-05-12T04:34:10.751Z,93.17
2023-05-12T04:35:10.736Z,93.79
2023-05-12T04:36:10.724Z,93.38
2023-05-12T04:37:10.718Z,93.38
2023-05-12T04:38:10.709Z,93.38
2023-05-12T04:39:10.689Z,92.97
2023-05-12T04:40:10.667Z,92.31
2023-05-12T04:41:10.663Z,92.46
2023-05-12T04:42:10.659Z,92.21
2023-05-12T04:43:59.991Z,92.51
2023-05-12T04:44:11.642Z,92.72
2023-05-12T04:45:10.612Z,92.93
2023-05-12T04:46:10.718Z,93.13
2023-05-12T04:47:10.582Z,92.61
2023-05-12T04:48:10.607Z,92.61
2023-05-12T04:49:10.586Z,92.47
2023-05-12T04:50:10.602Z,92.41
2023-05-12T04:51:10.555Z,92.57
2023-05-12T04:52:10.547Z,92.51
2023-05-12T04:53:11.477Z,92.36
2023-05-12T04:54:10.552Z,92.16
2023-05-12T04:55:10.510Z,92.12
2023-05-12T04:56:10.972Z,91.96
2023-05-12T04:57:10.484Z,92.74
2023-05-12T04:58:10.469Z,92.32
2023-05-12T04:59:10.478Z,92.22
2023-05-12T05:00:10.437Z,91.82
2023-05-12T05:01:11.579Z,92.02
2023-05-12T05:02:10.429Z,91.82
2023-05-12T05:03:10.456Z,92.32
2023-05-12T05:04:10.428Z,92.28
2023-05-12T05:05:10.394Z,92.28
2023-05-12T05:06:10.382Z,92.59
2023-05-12T05:07:10.359Z,92.49
2023-05-12T05:08:10.378Z,92.38
2023-05-12T05:09:17.377Z,92.69
2023-05-12T05:10:10.406Z,92.08
2023-05-12T05:11:10.468Z,92.59
2023-05-12T05:12:10.326Z,92.18
2023-05-12T05:13:10.296Z,92.14
2023-05-12T05:14:10.286Z,92.55
2023-05-12T05:15:10.302Z,91.93
2023-05-12T05:16:10.342Z,91.73
2023-05-12T05:17:10.234Z,91.73
2023-05-12T05:18:10.244Z,91.69
2023-05-12T05:19:20.171Z,91.07
2023-05-12T05:20:12.284Z,91.58
2023-05-12T05:21:10.230Z,90.77
2023-05-12T05:22:10.207Z,90.52
2023-05-12T05:23:10.176Z,90.31
2023-05-12T05:24:11.512Z,90.21
2023-05-12T05:25:10.257Z,90.31
2023-05-12T05:26:10.176Z,89.90
2023-05-12T05:27:10.142Z,89.59
2023-05-12T05:28:10.134Z,89.18
2023-05-12T05:29:10.123Z,89.29
2023-05-12T05:30:10.123Z,89.15
2023-05-12T05:31:10.228Z,88.84
2023-05-12T05:32:10.092Z,88.84
2023-05-12T05:33:10.107Z,88.74
2023-05-12T05:34:10.086Z,89.11
2023-05-12T05:35:10.179Z,89.00
2023-05-12T05:36:10.127Z,89.00
2023-05-12T05:37:10.052Z,88.96
2023-05-12T05:38:10.036Z,88.76
2023-05-12T05:39:10.001Z,89.06
2023-05-12T05:40:10.043Z,87.94
2023-05-12T05:41:10.025Z,87.94
2023-05-12T05:42:09.971Z,87.84
2023-05-12T05:43:09.949Z,87.73
2023-05-12T05:44:09.954Z,87.29
2023-05-12T05:45:09.957Z,87.79
2023-05-12T05:46:09.932Z,87.59
2023-05-12T05:47:10.015Z,87.04
2023-05-12T05:48:10.143Z,87.24
2023-05-12T05:49:09.889Z,87.04
2023-05-12T05:50:09.912Z,86.63
2023-05-12T05:51:09.864Z,86.83
2023-05-12T05:52:09.878Z,85.88
2023-05-12T05:53:09.862Z,85.98
2023-05-12T05:54:09.859Z,85.57
2023-05-12T05:55:09.813Z,85.47
2023-05-12T05:56:09.828Z,84.86
2023-05-12T05:57:09.848Z,84.51
2023-05-12T05:58:09.784Z,83.70
2023-05-12T05:59:09.813Z,83.49
2023-05-12T06:00:09.758Z,83.70
2023-05-12T06:01:09.791Z,82.78
2023-05-12T06:02:09.813Z,82.27
2023-05-12T06:03:09.820Z,82.57
2023-05-12T06:04:09.774Z,83.04
2023-05-12T06:05:09.748Z,83.76
2023-05-12T06:06:09.719Z,83.56
2023-05-12T06:07:09.686Z,83.15
2023-05-12T06:08:09.698Z,82.94
2023-05-12T06:09:09.661Z,82.50
2023-05-12T06:10:09.681Z,82.40
2023-05-12T06:11:09.649Z,81.88
2023-05-12T06:12:09.626Z,81.58
2023-05-12T06:13:09.612Z,80.32
2023-05-12T06:14:09.613Z,79.50
2023-05-12T06:15:09.591Z,78.89
2023-05-12T06:16:09.638Z,78.69
2023-05-12T06:17:09.569Z,79.20
2023-05-12T06:18:09.628Z,78.55
2023-05-12T06:19:09.665Z,78.15
2023-05-12T06:20:09.550Z,79.47
2023-05-12T06:21:09.561Z,78.96
2023-05-12T06:22:09.524Z,79.23
2023-05-12T06:23:09.498Z,78.41
2023-05-12T06:24:09.517Z,76.99
2023-05-12T06:25:09.504Z,77.06
2023-05-12T06:26:09.482Z,75.73
2023-05-12T06:27:09.456Z,75.23
2023-05-12T06:28:09.467Z,75.60
2023-05-12T06:29:09.478Z,73.77
2023-05-12T06:30:09.432Z,73.06
2023-05-12T06:31:09.440Z,73.74
2023-05-12T06:32:09.529Z,75.93
2023-05-12T06:33:09.458Z,75.43
2023-05-12T06:34:09.413Z,74.98
2023-05-12T06:35:09.512Z,71.53
2023-05-12T06:36:09.375Z,71.44
2023-05-12T06:37:09.366Z,71.44
2023-05-12T06:38:09.336Z,71.91
2023-05-12T06:39:09.343Z,69.98
2023-05-12T06:40:09.339Z,70.28
2023-05-12T06:41:09.305Z,71.97
2023-05-12T06:42:09.461Z,72.75
2023-05-12T06:43:09.297Z,73.12
2023-05-12T06:44:09.261Z,72.88
2023-05-12T06:45:09.277Z,73.09
2023-05-12T06:46:09.268Z,70.83
2023-05-12T06:47:09.307Z,69.78
2023-05-12T06:48:09.265Z,69.78
2023-05-12T06:49:09.216Z,67.66
2023-05-12T06:50:09.223Z,68.37
2023-05-12T06:51:09.208Z,70.56
2023-05-12T06:52:09.174Z,69.11
2023-05-12T06:53:09.190Z,65.95
2023-05-12T06:54:09.150Z,67.53
2023-05-12T06:55:09.161Z,67.19
2023-05-12T06:56:09.152Z,66.19
2023-05-12T06:57:09.162Z,65.25
2023-05-12T06:58:09.105Z,62.43
2023-05-12T06:59:09.120Z,62.83
2023-05-12T07:00:09.333Z,64.11
2023-05-12T07:01:09.380Z,63.60
2023-05-12T07:02:09.056Z,61.39
2023-05-12T07:03:09.126Z,62.80
2023-05-12T07:04:09.452Z,62.40
2023-05-12T07:05:09.057Z,61.32
2023-05-12T07:06:09.041Z,62.29
2023-05-12T07:07:09.041Z,61.01
2023-05-12T07:08:09.029Z,64.21
2023-05-12T07:09:09.004Z,64.18
2023-05-12T07:10:08.988Z,66.27
2023-05-12T07:11:09.131Z,56.77
2023-05-12T07:12:09.061Z,55.94
2023-05-12T07:13:08.937Z,56.01
2023-05-12T07:14:08.954Z,55.81
2023-05-12T07:15:08.941Z,53.90
2023-05-12T07:16:08.934Z,54.63
2023-05-12T07:17:08.907Z,55.76
2023-05-12T07:18:08.911Z,54.86
2023-05-12T07:19:09.099Z,57.17
2023-05-12T07:20:08.877Z,59.16
2023-05-12T07:21:08.871Z,58.02
2023-05-12T07:22:08.835Z,56.79
2023-05-12T07:23:08.827Z,55.05
2023-05-12T07:24:08.806Z,51.24
2023-05-12T07:25:08.884Z,51.66
2023-05-12T07:26:08.819Z,55.28
2023-05-12T07:27:08.836Z,57.09
2023-05-12T07:28:08.800Z,52.47
2023-05-12T07:29:08.759Z,53.07
2023-05-12T07:30:08.743Z,52.26
2023-05-12T07:31:08.910Z,52.59
2023-05-12T07:32:08.733Z,55.91
2023-05-12T07:33:08.827Z,53.60
2023-05-12T07:34:08.692Z,51.71
2023-05-12T07:35:08.690Z,55.63
2023-05-12T07:36:08.707Z,54.25
2023-05-12T07:37:08.673Z,55.06
2023-05-12T07:38:08.664Z,56.84
2023-05-12T07:39:08.644Z,55.43
2023-05-12T07:40:08.629Z,53.75
2023-05-12T07:41:08.666Z,54.83
2023-05-12T07:42:08.662Z,54.73
2023-05-12T07:43:08.606Z,52.42
2023-05-12T07:44:08.786Z,52.51
2023-05-12T07:45:08.579Z,52.62
2023-05-12T07:46:08.581Z,53.75
2023-05-12T07:47:08.602Z,56.04
2023-05-12T07:48:08.627Z,55.51
2023-05-12T07:49:15.588Z,52.69
2023-05-12T07:50:08.529Z,53.22
2023-05-12T07:51:08.556Z,53.20
2023-05-12T07:52:08.497Z,54.46
2023-05-12T07:53:08.499Z,55.26
2023-05-12T07:54:08.497Z,53.67
2023-05-12T07:55:08.472Z,53.22
2023-05-12T07:56:08.567Z,57.03
2023-05-12T07:57:08.496Z,57.30
2023-05-12T07:58:08.435Z,52.97
2023-05-12T07:59:08.456Z,52.57
2023-05-12T08:00:08.528Z,53.45
2023-05-12T08:01:08.426Z,55.76
2023-05-12T08:02:08.421Z,52.04
2023-05-12T08:03:08.473Z,52.80
2023-05-12T08:04:08.537Z,54.53
2023-05-12T08:05:08.394Z,54.46
2023-05-12T08:06:08.389Z,54.38
2023-05-12T08:07:08.341Z,55.90
2023-05-12T08:08:08.325Z,53.20
2023-05-12T08:09:08.330Z,55.72
2023-05-12T08:10:08.320Z,54.38
2023-05-12T08:11:08.318Z,55.57
2023-05-12T08:12:08.313Z,56.27
2023-05-12T08:13:08.281Z,57.25
2023-05-12T08:14:08.261Z,55.41
2023-05-12T08:15:08.268Z,52.59
2023-05-12T08:16:08.276Z,54.43
2023-05-12T08:17:08.277Z,55.06
2023-05-12T08:18:08.291Z,54.43
2023-05-12T08:19:08.398Z,54.16
2023-05-12T08:20:08.210Z,54.33
2023-05-12T08:21:08.194Z,55.11
2023-05-12T08:22:08.158Z,58.81
2023-05-12T08:23:08.158Z,56.77
2023-05-12T08:24:08.155Z,54.05
2023-05-12T08:25:09.760Z,55.36
2023-05-12T08:26:08.141Z,54.33
2023-05-12T08:27:08.112Z,55.61
2023-05-12T08:28:08.095Z,53.67
2023-05-12T08:29:08.110Z,52.26
2023-05-12T08:30:08.098Z,56.16
2023-05-12T08:31:08.110Z,53.25
2023-05-12T08:32:08.148Z,53.14
2023-05-12T08:33:08.129Z,54.53
2023-05-12T08:34:10.858Z,55.51
2023-05-12T08:35:08.048Z,53.97
2023-05-12T08:36:08.030Z,51.67
2023-05-12T08:37:08.013Z,52.87
2023-05-12T08:38:08.831Z,55.35
2023-05-12T08:39:07.977Z,53.34
2023-05-12T08:40:07.975Z,51.82
2023-05-12T08:41:07.964Z,49.48
2023-05-12T08:42:07.946Z,51.06
2023-05-12T08:43:07.936Z,52.69
2023-05-12T08:44:07.941Z,52.69
2023-05-12T08:45:07.913Z,54.30
2023-05-12T08:46:07.930Z,55.99
2023-05-12T08:47:07.892Z,52.37
2023-05-12T08:48:08.018Z,52.37
2023-05-12T08:49:07.924Z,55.08
2023-05-12T08:50:07.846Z,55.79
2023-05-12T08:51:07.843Z,55.26
2023-05-12T08:52:07.887Z,54.93
2023-05-12T08:53:07.816Z,52.04
2023-05-12T08:54:07.820Z,50.81
2023-05-12T08:55:07.798Z,52.26
2023-05-12T08:57:09.143Z,55.91
2023-05-12T08:58:09.571Z,53.47
2023-05-12T08:59:07.765Z,55.89
2023-05-12T09:00:07.753Z,53.58
2023-05-12T09:01:07.782Z,54.91
2023-05-12T09:02:07.734Z,56.15
2023-05-12T09:03:07.763Z,57.53
2023-05-12T09:04:07.786Z,56.80
2023-05-12T09:05:07.703Z,59.79
2023-05-12T09:06:07.666Z,54.10
2023-05-12T09:07:07.660Z,53.07
2023-05-12T09:08:07.655Z,51.56
2023-05-12T09:09:07.636Z,53.47
2023-05-12T09:10:07.656Z,55.38
2023-05-12T09:11:07.613Z,56.66
2023-05-12T09:12:07.606Z,54.30
2023-05-12T09:13:07.591Z,55.47
2023-05-12T09:14:07.580Z,55.65
2023-05-12T09:15:07.640Z,54.43
2023-05-12T09:16:07.616Z,52.29
2023-05-12T09:17:07.586Z,51.42
2023-05-12T09:18:07.623Z,51.42
2023-05-12T09:19:07.586Z,50.06
2023-05-12T09:20:11.303Z,51.99
2023-05-12T09:21:08.522Z,51.11
2023-05-12T09:22:07.493Z,52.55
2023-05-12T09:23:07.490Z,54.15
2023-05-12T09:24:07.499Z,53.65
2023-05-12T09:25:07.459Z,53.34
2023-05-12T09:26:07.444Z,55.35
2023-05-12T09:27:07.459Z,54.85
2023-05-12T09:28:07.430Z,54.35
2023-05-12T09:29:07.450Z,55.26
2023-05-12T09:30:07.400Z,53.55
2023-05-12T09:31:07.423Z,52.94
2023-05-12T09:32:07.417Z,55.16
2023-05-12T09:33:07.405Z,55.53
2023-05-12T09:34:07.516Z,52.32
2023-05-12T09:35:07.379Z,53.82
2023-05-12T09:36:07.495Z,56.51
2023-05-12T09:37:07.374Z,54.38
2023-05-12T09:38:07.333Z,49.58
2023-05-12T09:39:07.383Z,53.25
2023-05-12T09:40:07.308Z,51.66
2023-05-12T09:41:07.287Z,52.44
2023-05-12T09:42:07.291Z,55.66
2023-05-12T09:43:07.270Z,56.13
2023-05-12T09:44:07.254Z,56.01
2023-05-12T09:45:07.232Z,53.80
2023-05-12T09:46:07.290Z,51.49
2023-05-12T09:47:07.295Z,53.50
2023-05-12T09:48:07.222Z,57.08
2023-05-12T09:49:07.219Z,56.08
2023-05-12T09:50:07.176Z,55.55
2023-05-12T09:51:07.172Z,52.64
2023-05-12T09:52:07.180Z,55.45
2023-05-12T09:53:07.173Z,54.62
2023-05-12T09:54:08.035Z,53.52
2023-05-12T09:55:07.121Z,53.39
2023-05-12T09:56:07.158Z,50.92
2023-05-12T09:57:07.137Z,51.21
2023-05-12T09:58:07.083Z,50.04
2023-05-12T09:59:07.100Z,52.87
2023-05-12T10:00:16.918Z,52.47
2023-05-12T10:01:21.454Z,52.04
2023-05-12T10:02:08.111Z,52.14
2023-05-12T10:03:07.085Z,51.12
2023-05-12T10:04:07.134Z,52.32
2023-05-12T10:05:07.197Z,51.21
2023-05-12T10:06:08.061Z,49.04
2023-05-12T10:07:07.041Z,50.26
2023-05-12T10:08:07.054Z,50.66
2023-05-12T10:09:06.992Z,54.65
2023-05-12T10:10:06.992Z,50.46
2023-05-12T10:11:06.986Z,52.67
2023-05-12T10:12:06.943Z,51.17
2023-05-12T10:13:06.950Z,52.07
2023-05-12T10:14:06.918Z,54.68
2023-05-12T10:15:07.792Z,53.64
2023-05-12T10:16:06.937Z,53.95
2023-05-12T10:17:07.186Z,51.74
2023-05-12T10:18:07.008Z,51.44
2023-05-12T10:19:09.244Z,49.86
2023-05-12T10:20:06.893Z,53.20
2023-05-12T10:21:06.826Z,52.80
2023-05-12T10:22:06.847Z,52.12
2023-05-12T10:23:06.814Z,51.61
2023-05-12T10:24:06.825Z,54.02
2023-05-12T10:25:06.812Z,52.82
2023-05-12T10:26:06.793Z,51.42
2023-05-12T10:27:06.802Z,49.53
2023-05-12T10:28:06.763Z,51.59
2023-05-12T10:29:06.745Z,52.09
2023-05-12T10:30:06.735Z,54.60
2023-05-12T10:31:06.845Z,53.50
2023-05-12T10:32:06.728Z,55.71
2023-05-12T10:33:06.734Z,52.59
2023-05-12T10:34:06.701Z,54.68
2023-05-12T10:35:06.689Z,54.78
2023-05-12T10:36:06.690Z,52.94
2023-05-12T10:37:06.682Z,52.24
2023-05-12T10:38:06.650Z,55.33
2023-05-12T10:39:06.662Z,52.89
2023-05-12T10:40:06.716Z,52.89
2023-05-12T10:41:06.627Z,54.70
2023-05-12T10:42:06.626Z,51.56
2023-05-12T10:43:06.590Z,52.47
2023-05-12T10:44:06.605Z,52.55
2023-05-12T10:45:06.607Z,50.74
2023-05-12T10:46:06.580Z,53.37
2023-05-12T10:47:06.564Z,55.65
2023-05-12T10:48:06.585Z,55.13
2023-05-12T10:49:06.585Z,54.43
2023-05-12T10:50:06.513Z,55.63
2023-05-12T10:51:06.512Z,55.60
2023-05-12T10:52:06.488Z,50.62
2023-05-12T10:53:07.531Z,52.44
2023-05-12T10:54:06.538Z,51.89
2023-05-12T10:55:06.516Z,51.56
2023-05-12T10:56:06.930Z,54.80
2023-05-12T10:57:06.680Z,52.97
2023-05-12T10:58:06.804Z,55.61
2023-05-12T10:59:06.774Z,52.82
2023-05-12T11:00:06.802Z,53.14
2023-05-12T11:01:07.132Z,53.75
2023-05-12T11:02:06.900Z,55.16
2023-05-12T11:03:11.387Z,55.54
2023-05-12T11:04:07.463Z,54.53
2023-05-12T11:05:07.014Z,56.62
2023-05-12T11:06:07.149Z,55.81
2023-05-12T11:07:07.276Z,54.98
2023-05-12T11:08:07.210Z,53.57
2023-05-12T11:09:06.781Z,53.52
2023-05-12T11:11:06.482Z,58.28
2023-05-12T11:12:06.876Z,55.06
2023-05-12T11:13:06.277Z,54.99
2023-05-12T11:14:06.266Z,56.35
2023-05-12T11:15:06.449Z,57.56
2023-05-12T11:16:06.289Z,57.25
2023-05-12T11:17:06.220Z,56.98
2023-05-12T11:18:06.252Z,56.98
2023-05-12T11:19:06.202Z,57.45
2023-05-12T11:20:06.180Z,57.25
2023-05-12T11:21:06.165Z,57.03
2023-05-12T11:22:06.196Z,56.52
2023-05-12T11:23:06.162Z,56.32
2023-05-12T11:24:06.141Z,58.23
2023-05-12T11:25:06.184Z,57.73
2023-05-12T11:26:06.120Z,56.02
2023-05-12T11:27:06.120Z,56.88
2023-05-12T11:28:06.129Z,61.18
2023-05-12T11:29:06.075Z,57.08
2023-05-12T11:30:06.096Z,57.51
2023-05-12T11:31:06.047Z,59.25
2023-05-12T11:32:06.181Z,60.66
2023-05-12T11:33:06.117Z,59.15
2023-05-12T11:34:12.500Z,59.15
2023-05-12T11:35:07.043Z,57.51
2023-05-12T11:36:06.008Z,57.74
2023-05-12T11:37:05.982Z,59.08
2023-05-12T11:38:06.001Z,59.28
2023-05-12T11:39:05.956Z,58.85
2023-05-12T11:40:06.110Z,57.23
2023-05-12T11:41:05.955Z,59.56
2023-05-12T11:42:13.073Z,56.81
2023-05-12T11:43:06.932Z,57.14
2023-05-12T11:44:05.962Z,57.34
2023-05-12T11:45:05.942Z,57.43
2023-05-12T11:46:06.031Z,57.43
2023-05-12T11:47:05.928Z,57.14
2023-05-12T11:48:05.933Z,59.18
2023-05-12T11:49:05.862Z,60.19
2023-05-12T11:50:05.877Z,59.45
2023-05-12T11:51:05.842Z,60.46
2023-05-12T11:52:07.072Z,61.75
2023-05-12T11:53:05.818Z,60.84
2023-05-12T11:54:05.817Z,60.21
2023-05-12T11:55:05.979Z,59.37
2023-05-12T11:56:05.785Z,57.25
2023-05-12T11:57:05.781Z,58.26
2023-05-12T11:58:05.769Z,60.17
2023-05-12T11:59:05.766Z,59.47
2023-05-12T12:00:05.789Z,56.55
2023-05-12T12:01:05.751Z,58.67
2023-05-12T12:02:05.757Z,59.55
2023-05-12T12:03:05.784Z,58.23
2023-05-12T12:04:06.057Z,60.75
2023-05-12T12:05:08.529Z,59.84
2023-05-12T12:06:05.688Z,60.22
2023-05-12T12:07:05.663Z,60.83
2023-05-12T12:08:05.650Z,60.93
2023-05-12T12:09:05.637Z,61.13
2023-05-12T12:10:05.707Z,58.81
2023-05-12T12:11:05.650Z,58.81
2023-05-12T12:12:05.616Z,58.98
2023-05-12T12:13:05.593Z,58.78
2023-05-12T12:14:05.594Z,59.99
2023-05-12T12:15:05.593Z,58.78
2023-05-12T12:16:05.675Z,59.56
2023-05-12T12:17:05.568Z,59.96
2023-05-12T12:18:05.590Z,60.39
2023-05-12T12:19:05.611Z,57.98
2023-05-12T12:20:05.527Z,58.38
2023-05-12T12:21:05.538Z,57.24
2023-05-12T12:22:05.500Z,56.64
2023-05-12T12:23:05.472Z,56.54
2023-05-12T12:24:05.518Z,56.95
2023-05-12T12:25:05.503Z,56.34
2023-05-12T12:26:05.454Z,57.15
2023-05-12T12:27:05.445Z,56.64
2023-05-12T12:28:05.446Z,55.87
2023-05-12T12:29:05.414Z,57.17
2023-05-12T12:30:05.402Z,56.97
2023-05-12T12:31:05.469Z,58.88
2023-05-12T12:32:05.479Z,59.28
2023-05-12T12:33:05.452Z,58.78
2023-05-12T12:34:05.352Z,57.98
2023-05-12T12:35:05.380Z,57.37
2023-05-12T12:36:05.347Z,60.49
2023-05-12T12:37:05.310Z,58.18
2023-05-12T12:38:05.313Z,58.28
2023-05-12T12:39:05.324Z,60.49
2023-05-12T12:40:05.307Z,57.85
2023-05-12T12:41:05.298Z,58.93
2023-05-12T12:42:05.274Z,56.31
2023-05-12T12:43:05.248Z,57.29
2023-05-12T12:44:05.263Z,59.00
2023-05-12T12:45:05.260Z,58.44
2023-05-12T12:46:05.223Z,57.89
2023-05-12T12:47:05.315Z,58.53
2023-05-12T12:48:05.289Z,56.20
2023-05-12T12:49:05.186Z,51.67
2023-05-12T12:50:05.175Z,55.15
2023-05-12T12:51:05.170Z,52.34
2023-05-12T12:52:05.164Z,52.44
2023-05-12T12:53:05.156Z,51.97
2023-05-12T12:54:05.135Z,51.29